sensor_id;sensor_type;location;lat;lon;timestamp;P1;durP1;ratioP1;P2;durP2;ratioP2
11481;SDS011;5797;51.662;6.748;2023-07-24T00:02:26;4.37;;;2.40;;
11481;SDS011;5797;51.662;6.748;2023-07-24T00:04:54;4.57;;;2.80;;
11481;SDS011;5797;51.662;6.748;2023-07-24T00:07:23;2.67;;;1.90;;
11481;SDS011;5797;51.662;6.748;2023-07-24T00:09:52;4.10;;;2.50;;
11481;SDS011;5797;51.662;6.748;2023-07-24T00:12:22;3.73;;;2.43;;
11481;SDS011;5797;51.662;6.748;2023-07-24T00:14:52;2.37;;;1.93;;
11481;SDS011;5797;51.662;6.748;2023-07-24T00:17:21;4.73;;;2.60;;
11481;SDS011;5797;51.662;6.748;2023-07-24T00:19:49;4.07;;;2.30;;
11481;SDS011;5797;51.662;6.748;2023-07-24T00:22:18;3.37;;;2.20;;
11481;SDS011;5797;51.662;6.748;2023-07-24T00:24:46;3.20;;;2.30;;
11481;SDS011;5797;51.662;6.748;2023-07-24T00:27:15;3.30;;;2.17;;
11481;SDS011;5797;51.662;6.748;2023-07-24T00:29:45;4.07;;;2.37;;
11481;SDS011;5797;51.662;6.748;2023-07-24T00:32:14;2.97;;;2.43;;
11481;SDS011;5797;51.662;6.748;2023-07-24T00:34:43;3.83;;;2.80;;
11481;SDS011;5797;51.662;6.748;2023-07-24T00:37:11;2.80;;;2.23;;
11481;SDS011;5797;51.662;6.748;2023-07-24T00:39:39;2.83;;;2.37;;
11481;SDS011;5797;51.662;6.748;2023-07-24T00:42:08;4.70;;;2.50;;
11481;SDS011;5797;51.662;6.748;2023-07-24T00:44:36;3.83;;;2.43;;
11481;SDS011;5797;51.662;6.748;2023-07-24T00:47:05;3.50;;;2.80;;
11481;SDS011;5797;51.662;6.748;2023-07-24T00:49:35;3.30;;;2.27;;
11481;SDS011;5797;51.662;6.748;2023-07-24T00:52:03;5.13;;;3.10;;
11481;SDS011;5797;51.662;6.748;2023-07-24T00:54:32;5.40;;;2.73;;
11481;SDS011;5797;51.662;6.748;2023-07-24T00:57:01;3.83;;;2.67;;
11481;SDS011;5797;51.662;6.748;2023-07-24T00:59:31;4.43;;;2.67;;
11481;SDS011;5797;51.662;6.748;2023-07-24T01:02:00;5.67;;;2.50;;
11481;SDS011;5797;51.662;6.748;2023-07-24T01:04:28;4.27;;;2.80;;
11481;SDS011;5797;51.662;6.748;2023-07-24T01:06:58;4.97;;;2.87;;
11481;SDS011;5797;51.662;6.748;2023-07-24T01:09:27;4.63;;;3.00;;
11481;SDS011;5797;51.662;6.748;2023-07-24T01:11:56;4.07;;;3.03;;
11481;SDS011;5797;51.662;6.748;2023-07-24T01:14:29;5.87;;;3.63;;
11481;SDS011;5797;51.662;6.748;2023-07-24T01:17:01;5.10;;;2.90;;
11481;SDS011;5797;51.662;6.748;2023-07-24T01:19:33;4.90;;;3.23;;
11481;SDS011;5797;51.662;6.748;2023-07-24T01:22:10;6.87;;;3.27;;
11481;SDS011;5797;51.662;6.748;2023-07-24T01:24:48;6.20;;;3.33;;
11481;SDS011;5797;51.662;6.748;2023-07-24T01:27:24;4.53;;;2.97;;
11481;SDS011;5797;51.662;6.748;2023-07-24T01:29:53;6.80;;;3.37;;
11481;SDS011;5797;51.662;6.748;2023-07-24T01:32:21;4.73;;;3.50;;
11481;SDS011;5797;51.662;6.748;2023-07-24T01:34:50;5.20;;;3.43;;
11481;SDS011;5797;51.662;6.748;2023-07-24T01:37:21;6.27;;;3.23;;
11481;SDS011;5797;51.662;6.748;2023-07-24T01:39:50;5.63;;;3.37;;
11481;SDS011;5797;51.662;6.748;2023-07-24T01:42:19;5.30;;;3.43;;
11481;SDS011;5797;51.662;6.748;2023-07-24T01:44:52;4.73;;;3.17;;
11481;SDS011;5797;51.662;6.748;2023-07-24T01:47:20;5.53;;;3.53;;
11481;SDS011;5797;51.662;6.748;2023-07-24T01:49:49;7.63;;;3.10;;
11481;SDS011;5797;51.662;6.748;2023-07-24T01:52:18;4.83;;;3.43;;
11481;SDS011;5797;51.662;6.748;2023-07-24T01:54:46;3.60;;;2.73;;
11481;SDS011;5797;51.662;6.748;2023-07-24T01:57:14;4.53;;;3.93;;
11481;SDS011;5797;51.662;6.748;2023-07-24T01:59:43;5.13;;;3.30;;
11481;SDS011;5797;51.662;6.748;2023-07-24T02:02:13;4.70;;;3.60;;
11481;SDS011;5797;51.662;6.748;2023-07-24T02:04:41;5.73;;;3.70;;
11481;SDS011;5797;51.662;6.748;2023-07-24T02:07:10;5.03;;;3.27;;
11481;SDS011;5797;51.662;6.748;2023-07-24T02:09:38;6.50;;;3.03;;
11481;SDS011;5797;51.662;6.748;2023-07-24T02:12:07;8.10;;;4.13;;
11481;SDS011;5797;51.662;6.748;2023-07-24T02:14:35;7.23;;;3.63;;
11481;SDS011;5797;51.662;6.748;2023-07-24T02:17:04;5.63;;;3.43;;
11481;SDS011;5797;51.662;6.748;2023-07-24T02:19:33;4.73;;;3.50;;
11481;SDS011;5797;51.662;6.748;2023-07-24T02:22:02;6.90;;;3.60;;
11481;SDS011;5797;51.662;6.748;2023-07-24T02:24:34;5.37;;;3.77;;
11481;SDS011;5797;51.662;6.748;2023-07-24T02:27:04;6.70;;;3.83;;
11481;SDS011;5797;51.662;6.748;2023-07-24T02:29:32;5.93;;;3.53;;
11481;SDS011;5797;51.662;6.748;2023-07-24T02:32:01;6.03;;;4.07;;
11481;SDS011;5797;51.662;6.748;2023-07-24T02:34:29;5.47;;;4.43;;
11481;SDS011;5797;51.662;6.748;2023-07-24T02:36:59;7.80;;;3.83;;
11481;SDS011;5797;51.662;6.748;2023-07-24T02:39:29;5.87;;;3.90;;
11481;SDS011;5797;51.662;6.748;2023-07-24T02:41:57;6.60;;;3.90;;
11481;SDS011;5797;51.662;6.748;2023-07-24T02:44:25;6.53;;;4.20;;
11481;SDS011;5797;51.662;6.748;2023-07-24T02:46:54;8.93;;;4.90;;
11481;SDS011;5797;51.662;6.748;2023-07-24T02:49:22;7.33;;;4.53;;
11481;SDS011;5797;51.662;6.748;2023-07-24T02:51:50;11.23;;;4.80;;
11481;SDS011;5797;51.662;6.748;2023-07-24T02:54:20;8.70;;;5.30;;
11481;SDS011;5797;51.662;6.748;2023-07-24T02:56:48;12.27;;;4.97;;
11481;SDS011;5797;51.662;6.748;2023-07-24T02:59:17;11.47;;;4.80;;
11481;SDS011;5797;51.662;6.748;2023-07-24T03:01:46;11.27;;;4.90;;
11481;SDS011;5797;51.662;6.748;2023-07-24T03:04:14;7.97;;;4.83;;
11481;SDS011;5797;51.662;6.748;2023-07-24T03:06:43;8.83;;;4.60;;
11481;SDS011;5797;51.662;6.748;2023-07-24T03:09:11;7.23;;;4.13;;
11481;SDS011;5797;51.662;6.748;2023-07-24T03:11:41;8.03;;;4.37;;
11481;SDS011;5797;51.662;6.748;2023-07-24T03:14:09;7.80;;;4.00;;
11481;SDS011;5797;51.662;6.748;2023-07-24T03:16:37;9.17;;;4.37;;
11481;SDS011;5797;51.662;6.748;2023-07-24T03:19:06;6.00;;;3.77;;
11481;SDS011;5797;51.662;6.748;2023-07-24T03:21:34;7.07;;;3.67;;
11481;SDS011;5797;51.662;6.748;2023-07-24T03:24:03;6.73;;;3.47;;
11481;SDS011;5797;51.662;6.748;2023-07-24T03:26:31;8.30;;;4.03;;
11481;SDS011;5797;51.662;6.748;2023-07-24T03:29:01;15.20;;;3.83;;
11481;SDS011;5797;51.662;6.748;2023-07-24T03:31:30;20.50;;;4.20;;
11481;SDS011;5797;51.662;6.748;2023-07-24T03:33:59;29.27;;;4.43;;
11481;SDS011;5797;51.662;6.748;2023-07-24T03:36:27;16.50;;;4.10;;
11481;SDS011;5797;51.662;6.748;2023-07-24T03:38:56;18.30;;;4.03;;
11481;SDS011;5797;51.662;6.748;2023-07-24T03:41:24;27.83;;;4.00;;
11481;SDS011;5797;51.662;6.748;2023-07-24T03:43:54;18.93;;;4.43;;
11481;SDS011;5797;51.662;6.748;2023-07-24T03:46:24;14.03;;;3.80;;
11481;SDS011;5797;51.662;6.748;2023-07-24T03:48:53;8.77;;;3.90;;
11481;SDS011;5797;51.662;6.748;2023-07-24T03:51:21;10.60;;;4.40;;
11481;SDS011;5797;51.662;6.748;2023-07-24T03:53:50;5.80;;;3.80;;
11481;SDS011;5797;51.662;6.748;2023-07-24T03:56:20;6.90;;;4.00;;
11481;SDS011;5797;51.662;6.748;2023-07-24T03:58:49;8.53;;;4.50;;
11481;SDS011;5797;51.662;6.748;2023-07-24T04:01:18;7.87;;;4.37;;
11481;SDS011;5797;51.662;6.748;2023-07-24T04:03:47;6.13;;;4.40;;
11481;SDS011;5797;51.662;6.748;2023-07-24T04:06:16;6.93;;;4.30;;
11481;SDS011;5797;51.662;6.748;2023-07-24T04:08:44;8.67;;;4.30;;
11481;SDS011;5797;51.662;6.748;2023-07-24T04:11:13;9.37;;;4.37;;
11481;SDS011;5797;51.662;6.748;2023-07-24T04:13:41;7.10;;;4.43;;
11481;SDS011;5797;51.662;6.748;2023-07-24T04:16:09;5.27;;;3.77;;
11481;SDS011;5797;51.662;6.748;2023-07-24T04:18:38;8.57;;;4.47;;
11481;SDS011;5797;51.662;6.748;2023-07-24T04:21:08;7.30;;;3.80;;
11481;SDS011;5797;51.662;6.748;2023-07-24T04:23:36;6.80;;;4.20;;
11481;SDS011;5797;51.662;6.748;2023-07-24T04:26:04;10.33;;;4.00;;
11481;SDS011;5797;51.662;6.748;2023-07-24T04:28:33;7.10;;;4.07;;
11481;SDS011;5797;51.662;6.748;2023-07-24T04:31:01;7.40;;;4.30;;
11481;SDS011;5797;51.662;6.748;2023-07-24T04:33:30;4.57;;;3.60;;
11481;SDS011;5797;51.662;6.748;2023-07-24T04:35:58;6.53;;;3.90;;
11481;SDS011;5797;51.662;6.748;2023-07-24T04:38:28;6.83;;;3.70;;
11481;SDS011;5797;51.662;6.748;2023-07-24T04:40:57;9.37;;;4.50;;
11481;SDS011;5797;51.662;6.748;2023-07-24T04:43:28;7.27;;;4.13;;
11481;SDS011;5797;51.662;6.748;2023-07-24T04:45:56;6.57;;;4.60;;
11481;SDS011;5797;51.662;6.748;2023-07-24T04:48:25;5.23;;;3.30;;
11481;SDS011;5797;51.662;6.748;2023-07-24T04:50:53;5.63;;;3.77;;
11481;SDS011;5797;51.662;6.748;2023-07-24T04:53:23;9.23;;;4.20;;
11481;SDS011;5797;51.662;6.748;2023-07-24T04:55:52;6.47;;;4.60;;
11481;SDS011;5797;51.662;6.748;2023-07-24T04:58:21;8.40;;;3.97;;
11481;SDS011;5797;51.662;6.748;2023-07-24T05:00:49;8.37;;;3.87;;
11481;SDS011;5797;51.662;6.748;2023-07-24T05:03:18;8.10;;;4.23;;
11481;SDS011;5797;51.662;6.748;2023-07-24T05:05:53;6.93;;;4.20;;
11481;SDS011;5797;51.662;6.748;2023-07-24T05:08:22;8.43;;;4.70;;
11481;SDS011;5797;51.662;6.748;2023-07-24T05:10:55;8.27;;;4.23;;
11481;SDS011;5797;51.662;6.748;2023-07-24T05:13:24;6.43;;;3.97;;
11481;SDS011;5797;51.662;6.748;2023-07-24T05:15:52;6.73;;;4.27;;
11481;SDS011;5797;51.662;6.748;2023-07-24T05:18:21;8.70;;;3.70;;
11481;SDS011;5797;51.662;6.748;2023-07-24T05:20:49;6.53;;;4.33;;
11481;SDS011;5797;51.662;6.748;2023-07-24T05:23:18;5.03;;;3.83;;
11481;SDS011;5797;51.662;6.748;2023-07-24T05:25:47;7.40;;;4.13;;
11481;SDS011;5797;51.662;6.748;2023-07-24T05:28:16;7.40;;;3.97;;
11481;SDS011;5797;51.662;6.748;2023-07-24T05:30:45;7.87;;;3.90;;
11481;SDS011;5797;51.662;6.748;2023-07-24T05:33:13;7.00;;;3.87;;
11481;SDS011;5797;51.662;6.748;2023-07-24T05:35:42;6.63;;;3.90;;
11481;SDS011;5797;51.662;6.748;2023-07-24T05:38:10;6.00;;;3.80;;
11481;SDS011;5797;51.662;6.748;2023-07-24T05:40:38;7.43;;;4.23;;
11481;SDS011;5797;51.662;6.748;2023-07-24T05:43:07;5.50;;;3.70;;
11481;SDS011;5797;51.662;6.748;2023-07-24T05:45:37;7.07;;;4.10;;
11481;SDS011;5797;51.662;6.748;2023-07-24T05:48:05;5.67;;;3.57;;
11481;SDS011;5797;51.662;6.748;2023-07-24T05:50:34;6.47;;;3.90;;
11481;SDS011;5797;51.662;6.748;2023-07-24T05:53:02;6.60;;;3.47;;
11481;SDS011;5797;51.662;6.748;2023-07-24T05:55:30;6.30;;;3.97;;
11481;SDS011;5797;51.662;6.748;2023-07-24T05:57:59;7.27;;;3.20;;
11481;SDS011;5797;51.662;6.748;2023-07-24T06:00:27;4.57;;;3.27;;
11481;SDS011;5797;51.662;6.748;2023-07-24T06:02:59;8.23;;;2.90;;
11481;SDS011;5797;51.662;6.748;2023-07-24T06:05:27;4.23;;;2.60;;
11481;SDS011;5797;51.662;6.748;2023-07-24T06:07:56;5.27;;;3.10;;
11481;SDS011;5797;51.662;6.748;2023-07-24T06:10:24;6.33;;;2.70;;
11481;SDS011;5797;51.662;6.748;2023-07-24T06:12:53;5.13;;;2.47;;
11481;SDS011;5797;51.662;6.748;2023-07-24T06:15:21;4.20;;;2.77;;
11481;SDS011;5797;51.662;6.748;2023-07-24T06:17:49;3.47;;;2.27;;
11481;SDS011;5797;51.662;6.748;2023-07-24T06:20:22;5.33;;;2.97;;
11481;SDS011;5797;51.662;6.748;2023-07-24T06:22:50;3.87;;;2.30;;
11481;SDS011;5797;51.662;6.748;2023-07-24T06:25:19;4.10;;;2.47;;
11481;SDS011;5797;51.662;6.748;2023-07-24T06:27:47;4.63;;;2.57;;
11481;SDS011;5797;51.662;6.748;2023-07-24T06:30:15;4.47;;;1.90;;
11481;SDS011;5797;51.662;6.748;2023-07-24T06:32:44;3.33;;;2.30;;
11481;SDS011;5797;51.662;6.748;2023-07-24T06:35:12;2.27;;;1.90;;
11481;SDS011;5797;51.662;6.748;2023-07-24T06:37:42;2.97;;;2.03;;
11481;SDS011;5797;51.662;6.748;2023-07-24T06:40:10;4.33;;;2.30;;
11481;SDS011;5797;51.662;6.748;2023-07-24T06:42:39;3.03;;;2.20;;
11481;SDS011;5797;51.662;6.748;2023-07-24T06:45:08;2.37;;;2.17;;
11481;SDS011;5797;51.662;6.748;2023-07-24T06:47:36;3.53;;;2.30;;
11481;SDS011;5797;51.662;6.748;2023-07-24T06:50:05;2.77;;;2.43;;
11481;SDS011;5797;51.662;6.748;2023-07-24T06:52:35;3.53;;;2.67;;
11481;SDS011;5797;51.662;6.748;2023-07-24T06:55:05;4.90;;;3.20;;
11481;SDS011;5797;51.662;6.748;2023-07-24T06:57:34;4.77;;;2.57;;
11481;SDS011;5797;51.662;6.748;2023-07-24T07:00:03;4.63;;;3.10;;
11481;SDS011;5797;51.662;6.748;2023-07-24T07:02:32;6.17;;;3.03;;
11481;SDS011;5797;51.662;6.748;2023-07-24T07:05:00;3.30;;;2.87;;
11481;SDS011;5797;51.662;6.748;2023-07-24T07:07:29;7.27;;;3.20;;
11481;SDS011;5797;51.662;6.748;2023-07-24T07:09:57;3.30;;;2.90;;
11481;SDS011;5797;51.662;6.748;2023-07-24T07:12:27;4.57;;;3.10;;
11481;SDS011;5797;51.662;6.748;2023-07-24T07:14:55;4.23;;;3.00;;
11481;SDS011;5797;51.662;6.748;2023-07-24T07:17:24;4.40;;;2.90;;
11481;SDS011;5797;51.662;6.748;2023-07-24T07:19:52;3.83;;;3.20;;
11481;SDS011;5797;51.662;6.748;2023-07-24T07:22:23;5.20;;;3.77;;
11481;SDS011;5797;51.662;6.748;2023-07-24T07:24:51;4.80;;;3.17;;
11481;SDS011;5797;51.662;6.748;2023-07-24T07:27:20;5.53;;;3.90;;
11481;SDS011;5797;51.662;6.748;2023-07-24T07:29:50;4.37;;;3.30;;
11481;SDS011;5797;51.662;6.748;2023-07-24T07:32:18;4.80;;;3.27;;
11481;SDS011;5797;51.662;6.748;2023-07-24T07:34:48;5.13;;;3.57;;
11481;SDS011;5797;51.662;6.748;2023-07-24T07:37:16;6.43;;;3.23;;
11481;SDS011;5797;51.662;6.748;2023-07-24T07:39:45;3.50;;;3.00;;
11481;SDS011;5797;51.662;6.748;2023-07-24T07:42:13;3.97;;;2.90;;
11481;SDS011;5797;51.662;6.748;2023-07-24T07:44:45;5.30;;;3.30;;
11481;SDS011;5797;51.662;6.748;2023-07-24T07:47:15;4.30;;;3.10;;
11481;SDS011;5797;51.662;6.748;2023-07-24T07:49:43;4.57;;;3.00;;
11481;SDS011;5797;51.662;6.748;2023-07-24T07:52:11;4.60;;;2.77;;
11481;SDS011;5797;51.662;6.748;2023-07-24T07:54:45;3.87;;;2.77;;
11481;SDS011;5797;51.662;6.748;2023-07-24T07:57:14;5.17;;;2.97;;
11481;SDS011;5797;51.662;6.748;2023-07-24T07:59:43;3.10;;;2.63;;
11481;SDS011;5797;51.662;6.748;2023-07-24T08:02:11;3.47;;;2.50;;
11481;SDS011;5797;51.662;6.748;2023-07-24T08:04:41;3.23;;;2.70;;
11481;SDS011;5797;51.662;6.748;2023-07-24T08:07:10;3.73;;;2.87;;
11481;SDS011;5797;51.662;6.748;2023-07-24T08:09:38;3.37;;;2.50;;
11481;SDS011;5797;51.662;6.748;2023-07-24T08:12:07;3.97;;;2.60;;
11481;SDS011;5797;51.662;6.748;2023-07-24T08:14:35;2.87;;;2.47;;
11481;SDS011;5797;51.662;6.748;2023-07-24T08:17:04;3.97;;;2.83;;
11481;SDS011;5797;51.662;6.748;2023-07-24T08:19:32;4.20;;;2.83;;
11481;SDS011;5797;51.662;6.748;2023-07-24T08:22:02;3.60;;;2.80;;
11481;SDS011;5797;51.662;6.748;2023-07-24T08:24:33;2.30;;;2.10;;
11481;SDS011;5797;51.662;6.748;2023-07-24T08:27:02;3.60;;;2.83;;
11481;SDS011;5797;51.662;6.748;2023-07-24T08:29:31;3.43;;;2.80;;
11481;SDS011;5797;51.662;6.748;2023-07-24T08:32:00;3.73;;;2.70;;
11481;SDS011;5797;51.662;6.748;2023-07-24T08:34:28;3.67;;;3.10;;
11481;SDS011;5797;51.662;6.748;2023-07-24T08:36:56;3.33;;;3.00;;
11481;SDS011;5797;51.662;6.748;2023-07-24T08:39:26;5.53;;;2.77;;
11481;SDS011;5797;51.662;6.748;2023-07-24T08:41:55;3.57;;;2.87;;
11481;SDS011;5797;51.662;6.748;2023-07-24T08:44:24;3.63;;;2.90;;
11481;SDS011;5797;51.662;6.748;2023-07-24T08:46:53;5.37;;;3.20;;
11481;SDS011;5797;51.662;6.748;2023-07-24T08:49:22;4.67;;;3.73;;
11481;SDS011;5797;51.662;6.748;2023-07-24T08:51:50;5.10;;;2.77;;
11481;SDS011;5797;51.662;6.748;2023-07-24T08:54:18;4.33;;;3.77;;
11481;SDS011;5797;51.662;6.748;2023-07-24T08:56:48;4.60;;;3.70;;
11481;SDS011;5797;51.662;6.748;2023-07-24T08:59:18;5.37;;;3.80;;
11481;SDS011;5797;51.662;6.748;2023-07-24T09:01:47;5.37;;;3.90;;
11481;SDS011;5797;51.662;6.748;2023-07-24T09:04:15;4.77;;;4.10;;
11481;SDS011;5797;51.662;6.748;2023-07-24T09:06:43;5.00;;;3.63;;
11481;SDS011;5797;51.662;6.748;2023-07-24T09:09:13;5.60;;;3.67;;
11481;SDS011;5797;51.662;6.748;2023-07-24T09:11:45;7.73;;;3.77;;
11481;SDS011;5797;51.662;6.748;2023-07-24T09:14:21;4.57;;;3.67;;
11481;SDS011;5797;51.662;6.748;2023-07-24T09:17:01;4.07;;;3.67;;
11481;SDS011;5797;51.662;6.748;2023-07-24T09:19:30;5.87;;;4.00;;
11481;SDS011;5797;51.662;6.748;2023-07-24T09:22:08;4.03;;;3.63;;
11481;SDS011;5797;51.662;6.748;2023-07-24T09:24:37;4.03;;;3.63;;
11481;SDS011;5797;51.662;6.748;2023-07-24T09:27:06;5.17;;;3.73;;
11481;SDS011;5797;51.662;6.748;2023-07-24T09:29:36;4.43;;;3.80;;
11481;SDS011;5797;51.662;6.748;2023-07-24T09:32:05;6.17;;;3.80;;
11481;SDS011;5797;51.662;6.748;2023-07-24T09:34:35;3.83;;;3.33;;
11481;SDS011;5797;51.662;6.748;2023-07-24T09:37:10;3.97;;;3.10;;
11481;SDS011;5797;51.662;6.748;2023-07-24T09:39:38;5.60;;;3.27;;
11481;SDS011;5797;51.662;6.748;2023-07-24T09:42:07;3.70;;;2.83;;
11481;SDS011;5797;51.662;6.748;2023-07-24T09:44:37;4.07;;;2.60;;
11481;SDS011;5797;51.662;6.748;2023-07-24T09:47:05;3.90;;;3.07;;
11481;SDS011;5797;51.662;6.748;2023-07-24T09:49:51;4.37;;;2.47;;
11481;SDS011;5797;51.662;6.748;2023-07-24T09:52:20;4.30;;;3.10;;
11481;SDS011;5797;51.662;6.748;2023-07-24T09:54:53;5.97;;;3.20;;
11481;SDS011;5797;51.662;6.748;2023-07-24T09:57:24;3.53;;;2.80;;
11481;SDS011;5797;51.662;6.748;2023-07-24T09:59:55;4.97;;;2.83;;
11481;SDS011;5797;51.662;6.748;2023-07-24T10:02:24;3.27;;;2.70;;
11481;SDS011;5797;51.662;6.748;2023-07-24T10:04:53;3.93;;;2.70;;
11481;SDS011;5797;51.662;6.748;2023-07-24T10:07:23;3.00;;;2.63;;
11481;SDS011;5797;51.662;6.748;2023-07-24T10:09:52;4.13;;;2.93;;
11481;SDS011;5797;51.662;6.748;2023-07-24T10:12:22;6.17;;;3.10;;
11481;SDS011;5797;51.662;6.748;2023-07-24T10:14:50;3.67;;;2.53;;
11481;SDS011;5797;51.662;6.748;2023-07-24T10:17:26;3.13;;;2.50;;
11481;SDS011;5797;51.662;6.748;2023-07-24T10:20:03;3.50;;;2.90;;
11481;SDS011;5797;51.662;6.748;2023-07-24T10:22:32;3.00;;;2.57;;
11481;SDS011;5797;51.662;6.748;2023-07-24T10:25:01;3.03;;;2.60;;
11481;SDS011;5797;51.662;6.748;2023-07-24T10:27:30;4.17;;;3.03;;
11481;SDS011;5797;51.662;6.748;2023-07-24T10:29:59;3.50;;;2.80;;
11481;SDS011;5797;51.662;6.748;2023-07-24T10:32:32;3.53;;;2.90;;
11481;SDS011;5797;51.662;6.748;2023-07-24T10:35:06;4.10;;;2.67;;
11481;SDS011;5797;51.662;6.748;2023-07-24T10:37:37;3.57;;;2.83;;
11481;SDS011;5797;51.662;6.748;2023-07-24T10:40:06;3.13;;;2.83;;
11481;SDS011;5797;51.662;6.748;2023-07-24T10:42:46;6.80;;;3.60;;
11481;SDS011;5797;51.662;6.748;2023-07-24T10:45:14;3.37;;;2.80;;
11481;SDS011;5797;51.662;6.748;2023-07-24T10:47:45;3.03;;;2.50;;
11481;SDS011;5797;51.662;6.748;2023-07-24T10:50:14;5.27;;;3.23;;
11481;SDS011;5797;51.662;6.748;2023-07-24T10:52:42;3.00;;;2.60;;
11481;SDS011;5797;51.662;6.748;2023-07-24T10:55:10;3.07;;;2.57;;
11481;SDS011;5797;51.662;6.748;2023-07-24T10:57:39;3.90;;;2.60;;
11481;SDS011;5797;51.662;6.748;2023-07-24T11:00:08;3.13;;;2.70;;
11481;SDS011;5797;51.662;6.748;2023-07-24T11:02:37;3.30;;;2.80;;
11481;SDS011;5797;51.662;6.748;2023-07-24T11:05:07;5.18;;;3.53;;
11481;SDS011;5797;51.662;6.748;2023-07-24T11:07:36;3.10;;;2.80;;
11481;SDS011;5797;51.662;6.748;2023-07-24T11:10:13;3.30;;;2.83;;
11481;SDS011;5797;51.662;6.748;2023-07-24T11:12:46;4.20;;;2.80;;
11481;SDS011;5797;51.662;6.748;2023-07-24T11:15:14;4.23;;;2.87;;
11481;SDS011;5797;51.662;6.748;2023-07-24T11:17:43;3.00;;;2.80;;
11481;SDS011;5797;51.662;6.748;2023-07-24T11:20:14;4.27;;;2.90;;
11481;SDS011;5797;51.662;6.748;2023-07-24T11:22:43;2.47;;;2.27;;
11481;SDS011;5797;51.662;6.748;2023-07-24T11:25:12;3.17;;;2.60;;
11481;SDS011;5797;51.662;6.748;2023-07-24T11:27:41;3.33;;;2.63;;
11481;SDS011;5797;51.662;6.748;2023-07-24T11:30:11;3.17;;;2.47;;
11481;SDS011;5797;51.662;6.748;2023-07-24T11:32:40;3.17;;;2.50;;
11481;SDS011;5797;51.662;6.748;2023-07-24T11:35:08;4.33;;;2.80;;
11481;SDS011;5797;51.662;6.748;2023-07-24T11:37:38;4.80;;;3.17;;
11481;SDS011;5797;51.662;6.748;2023-07-24T11:40:08;6.90;;;3.37;;
11481;SDS011;5797;51.662;6.748;2023-07-24T11:42:38;4.23;;;3.07;;
11481;SDS011;5797;51.662;6.748;2023-07-24T11:45:07;4.60;;;3.37;;
11481;SDS011;5797;51.662;6.748;2023-07-24T11:47:41;4.27;;;3.70;;
11481;SDS011;5797;51.662;6.748;2023-07-24T11:50:10;5.60;;;3.60;;
11481;SDS011;5797;51.662;6.748;2023-07-24T11:52:40;5.20;;;4.27;;
11481;SDS011;5797;51.662;6.748;2023-07-24T11:55:11;5.23;;;4.17;;
11481;SDS011;5797;51.662;6.748;2023-07-24T11:57:39;7.50;;;4.60;;
11481;SDS011;5797;51.662;6.748;2023-07-24T12:00:17;7.57;;;4.30;;
11481;SDS011;5797;51.662;6.748;2023-07-24T12:02:47;6.13;;;4.60;;
11481;SDS011;5797;51.662;6.748;2023-07-24T12:05:16;7.00;;;4.23;;
11481;SDS011;5797;51.662;6.748;2023-07-24T12:07:46;5.60;;;4.20;;
11481;SDS011;5797;51.662;6.748;2023-07-24T12:10:24;9.27;;;4.43;;
11481;SDS011;5797;51.662;6.748;2023-07-24T12:12:54;6.70;;;4.23;;
11481;SDS011;5797;51.662;6.748;2023-07-24T12:15:26;5.63;;;4.27;;
11481;SDS011;5797;51.662;6.748;2023-07-24T12:17:54;5.90;;;4.43;;
11481;SDS011;5797;51.662;6.748;2023-07-24T12:20:23;6.07;;;4.67;;
11481;SDS011;5797;51.662;6.748;2023-07-24T12:22:53;6.60;;;4.30;;
11481;SDS011;5797;51.662;6.748;2023-07-24T12:25:22;5.83;;;4.30;;
11481;SDS011;5797;51.662;6.748;2023-07-24T12:27:51;5.47;;;4.17;;
11481;SDS011;5797;51.662;6.748;2023-07-24T12:30:19;6.20;;;4.43;;
11481;SDS011;5797;51.662;6.748;2023-07-24T12:32:48;7.00;;;4.60;;
11481;SDS011;5797;51.662;6.748;2023-07-24T12:35:17;11.03;;;4.73;;
11481;SDS011;5797;51.662;6.748;2023-07-24T12:37:48;5.63;;;4.60;;
11481;SDS011;5797;51.662;6.748;2023-07-24T12:40:17;7.10;;;4.00;;
11481;SDS011;5797;51.662;6.748;2023-07-24T12:42:46;5.70;;;4.23;;
11481;SDS011;5797;51.662;6.748;2023-07-24T12:45:14;6.23;;;3.40;;
11481;SDS011;5797;51.662;6.748;2023-07-24T12:47:43;6.23;;;4.40;;
11481;SDS011;5797;51.662;6.748;2023-07-24T12:50:11;6.10;;;4.47;;
11481;SDS011;5797;51.662;6.748;2023-07-24T12:52:39;6.30;;;4.50;;
11481;SDS011;5797;51.662;6.748;2023-07-24T12:55:08;5.47;;;4.27;;
11481;SDS011;5797;51.662;6.748;2023-07-24T12:57:38;4.93;;;3.47;;
11481;SDS011;5797;51.662;6.748;2023-07-24T13:03:01;5.82;;;3.92;;
11481;SDS011;5797;51.662;6.748;2023-07-24T13:05:29;6.20;;;4.10;;
11481;SDS011;5797;51.662;6.748;2023-07-24T13:07:58;6.80;;;4.10;;
11481;SDS011;5797;51.662;6.748;2023-07-24T13:10:26;5.27;;;4.17;;
11481;SDS011;5797;51.662;6.748;2023-07-24T13:12:56;4.85;;;3.60;;
11481;SDS011;5797;51.662;6.748;2023-07-24T13:15:25;3.83;;;3.35;;
11481;SDS011;5797;51.662;6.748;2023-07-24T13:17:53;4.45;;;3.20;;
11481;SDS011;5797;51.662;6.748;2023-07-24T13:20:22;6.10;;;3.50;;
11481;SDS011;5797;51.662;6.748;2023-07-24T13:22:50;5.25;;;3.47;;
11481;SDS011;5797;51.662;6.748;2023-07-24T13:25:19;6.95;;;3.00;;
11481;SDS011;5797;51.662;6.748;2023-07-24T13:27:47;5.28;;;3.03;;
11481;SDS011;5797;51.662;6.748;2023-07-24T13:30:18;4.10;;;2.83;;
11481;SDS011;5797;51.662;6.748;2023-07-24T13:32:47;3.88;;;2.70;;
11481;SDS011;5797;51.662;6.748;2023-07-24T13:35:15;3.58;;;2.60;;
11481;SDS011;5797;51.662;6.748;2023-07-24T13:37:43;5.55;;;3.17;;
11481;SDS011;5797;51.662;6.748;2023-07-24T13:40:12;3.95;;;2.60;;
11481;SDS011;5797;51.662;6.748;2023-07-24T13:42:40;4.65;;;2.63;;
11481;SDS011;5797;51.662;6.748;2023-07-24T13:45:09;4.38;;;2.70;;
11481;SDS011;5797;51.662;6.748;2023-07-24T13:47:39;4.30;;;2.90;;
11481;SDS011;5797;51.662;6.748;2023-07-24T13:50:08;4.72;;;2.72;;
11481;SDS011;5797;51.662;6.748;2023-07-24T13:52:36;3.65;;;3.03;;
11481;SDS011;5797;51.662;6.748;2023-07-24T13:55:05;4.55;;;3.30;;
11481;SDS011;5797;51.662;6.748;2023-07-24T13:57:34;3.78;;;3.17;;
11481;SDS011;5797;51.662;6.748;2023-07-24T14:00:02;4.22;;;2.78;;
11481;SDS011;5797;51.662;6.748;2023-07-24T14:02:39;4.18;;;2.90;;
11481;SDS011;5797;51.662;6.748;2023-07-24T14:05:08;4.38;;;2.95;;
11481;SDS011;5797;51.662;6.748;2023-07-24T14:07:36;4.78;;;3.10;;
11481;SDS011;5797;51.662;6.748;2023-07-24T14:10:05;3.45;;;2.88;;
11481;SDS011;5797;51.662;6.748;2023-07-24T14:12:34;2.80;;;2.40;;
11481;SDS011;5797;51.662;6.748;2023-07-24T14:15:03;5.25;;;2.85;;
11481;SDS011;5797;51.662;6.748;2023-07-24T14:17:32;3.60;;;2.83;;
11481;SDS011;5797;51.662;6.748;2023-07-24T14:20:03;3.00;;;2.65;;
11481;SDS011;5797;51.662;6.748;2023-07-24T14:22:33;3.67;;;2.47;;
11481;SDS011;5797;51.662;6.748;2023-07-24T14:25:01;2.88;;;2.63;;
11481;SDS011;5797;51.662;6.748;2023-07-24T14:27:30;2.70;;;2.45;;
11481;SDS011;5797;51.662;6.748;2023-07-24T14:29:58;3.95;;;2.75;;
11481;SDS011;5797;51.662;6.748;2023-07-24T14:32:26;3.65;;;2.95;;
11481;SDS011;5797;51.662;6.748;2023-07-24T14:34:55;5.28;;;2.67;;
11481;SDS011;5797;51.662;6.748;2023-07-24T14:37:25;7.00;;;3.05;;
11481;SDS011;5797;51.662;6.748;2023-07-24T14:39:53;3.25;;;2.60;;
11481;SDS011;5797;51.662;6.748;2023-07-24T14:42:21;3.35;;;2.88;;
11481;SDS011;5797;51.662;6.748;2023-07-24T14:44:50;3.55;;;2.83;;
11481;SDS011;5797;51.662;6.748;2023-07-24T14:47:18;3.75;;;3.13;;
11481;SDS011;5797;51.662;6.748;2023-07-24T14:49:47;4.47;;;3.03;;
11481;SDS011;5797;51.662;6.748;2023-07-24T14:52:15;4.00;;;2.70;;
11481;SDS011;5797;51.662;6.748;2023-07-24T14:54:45;4.70;;;2.83;;
11481;SDS011;5797;51.662;6.748;2023-07-24T14:57:13;4.15;;;3.10;;
11481;SDS011;5797;51.662;6.748;2023-07-24T14:59:51;3.83;;;3.00;;
11481;SDS011;5797;51.662;6.748;2023-07-24T15:02:19;4.63;;;3.45;;
11481;SDS011;5797;51.662;6.748;2023-07-24T15:04:48;4.85;;;3.47;;
11481;SDS011;5797;51.662;6.748;2023-07-24T15:07:16;4.65;;;3.38;;
11481;SDS011;5797;51.662;6.748;2023-07-24T15:09:46;4.13;;;3.42;;
11481;SDS011;5797;51.662;6.748;2023-07-24T15:12:14;4.07;;;3.20;;
11481;SDS011;5797;51.662;6.748;2023-07-24T15:14:43;4.28;;;3.60;;
11481;SDS011;5797;51.662;6.748;2023-07-24T15:17:11;4.90;;;4.13;;